Harmony, Florida
Current Conditions -  °F | °C
As of 2:53 PM on Monday 26 Jan 2015 (Local Time) from KMLB Reporting Station
Scattered Clouds Scattered Clouds  
Wind Chill: 69°   Ceiling: Unl
Heat Index: 69°   Visibility: 10mi
Dew Point: 42°   Wind: 26mph
Humidity: 38%   Direction: 270°W
Pressure: 29.81"   Gusts: 39mph
Location:  28.1263°N, 80.9811°W
Report Text: KMLB 261953Z 27023G34KT 10SM SCT050 21/06 A2981 RMK AO2 PK WND 28036/1936 SLP094 T02060056
Loading
Personal Weather Stations






























Interactive Weather Map New forecast layout! Learn more

10-Day Weather Forecast

Advertisements
Track Severe Weather on mobile